sensor_id;sensor_type;location;lat;lon;timestamp;P1;durP1;ratioP1;P2;durP2;ratioP2
26656;SDS011;14279;50.010;8.260;2023-05-07T00:01:16;3.40;;;2.03;;
26656;SDS011;14279;50.010;8.260;2023-05-07T00:03:41;3.90;;;2.00;;
26656;SDS011;14279;50.010;8.260;2023-05-07T00:06:06;3.13;;;1.93;;
26656;SDS011;14279;50.010;8.260;2023-05-07T00:08:32;2.20;;;1.50;;
26656;SDS011;14279;50.010;8.260;2023-05-07T00:10:57;5.50;;;1.60;;
26656;SDS011;14279;50.010;8.260;2023-05-07T00:13:22;5.00;;;1.60;;
26656;SDS011;14279;50.010;8.260;2023-05-07T00:15:48;3.83;;;1.90;;
26656;SDS011;14279;50.010;8.260;2023-05-07T00:18:13;1.63;;;1.53;;
26656;SDS011;14279;50.010;8.260;2023-05-07T00:20:38;4.10;;;1.90;;
26656;SDS011;14279;50.010;8.260;2023-05-07T00:23:03;1.90;;;1.57;;
26656;SDS011;14279;50.010;8.260;2023-05-07T00:25:29;3.03;;;2.00;;
26656;SDS011;14279;50.010;8.260;2023-05-07T00:27:54;5.57;;;2.30;;
26656;SDS011;14279;50.010;8.260;2023-05-07T00:30:19;6.50;;;2.20;;
26656;SDS011;14279;50.010;8.260;2023-05-07T00:32:45;5.90;;;1.80;;
26656;SDS011;14279;50.010;8.260;2023-05-07T00:35:10;11.30;;;2.77;;
26656;SDS011;14279;50.010;8.260;2023-05-07T00:37:36;5.63;;;2.00;;
26656;SDS011;14279;50.010;8.260;2023-05-07T00:40:01;3.07;;;1.70;;
26656;SDS011;14279;50.010;8.260;2023-05-07T00:42:29;3.93;;;2.40;;
26656;SDS011;14279;50.010;8.260;2023-05-07T00:44:54;3.90;;;2.30;;
26656;SDS011;14279;50.010;8.260;2023-05-07T00:47:20;6.40;;;2.57;;
26656;SDS011;14279;50.010;8.260;2023-05-07T00:49:45;11.00;;;2.80;;
26656;SDS011;14279;50.010;8.260;2023-05-07T00:52:11;10.60;;;2.67;;
26656;SDS011;14279;50.010;8.260;2023-05-07T00:54:40;10.00;;;2.10;;
26656;SDS011;14279;50.010;8.260;2023-05-07T00:57:06;4.90;;;2.17;;
26656;SDS011;14279;50.010;8.260;2023-05-07T00:59:32;4.97;;;2.40;;
26656;SDS011;14279;50.010;8.260;2023-05-07T01:01:58;13.33;;;2.97;;
26656;SDS011;14279;50.010;8.260;2023-05-07T01:04:23;4.53;;;2.50;;
26656;SDS011;14279;50.010;8.260;2023-05-07T01:06:49;5.40;;;2.57;;
26656;SDS011;14279;50.010;8.260;2023-05-07T01:09:16;13.40;;;2.93;;
26656;SDS011;14279;50.010;8.260;2023-05-07T01:11:42;6.17;;;2.80;;
26656;SDS011;14279;50.010;8.260;2023-05-07T01:14:08;7.00;;;2.57;;
26656;SDS011;14279;50.010;8.260;2023-05-07T01:16:35;8.30;;;2.60;;
26656;SDS011;14279;50.010;8.260;2023-05-07T01:19:01;4.43;;;2.70;;
26656;SDS011;14279;50.010;8.260;2023-05-07T01:21:28;6.00;;;2.63;;
26656;SDS011;14279;50.010;8.260;2023-05-07T01:23:58;8.27;;;2.63;;
26656;SDS011;14279;50.010;8.260;2023-05-07T01:26:23;6.20;;;2.40;;
26656;SDS011;14279;50.010;8.260;2023-05-07T01:28:48;3.90;;;2.60;;
26656;SDS011;14279;50.010;8.260;2023-05-07T01:31:14;10.60;;;2.73;;
26656;SDS011;14279;50.010;8.260;2023-05-07T01:33:41;10.20;;;3.20;;
26656;SDS011;14279;50.010;8.260;2023-05-07T01:36:09;8.47;;;3.53;;
26656;SDS011;14279;50.010;8.260;2023-05-07T01:38:36;4.03;;;2.73;;
26656;SDS011;14279;50.010;8.260;2023-05-07T01:41:04;5.87;;;2.50;;
26656;SDS011;14279;50.010;8.260;2023-05-07T01:43:29;6.00;;;2.50;;
26656;SDS011;14279;50.010;8.260;2023-05-07T01:45:55;12.77;;;3.10;;
26656;SDS011;14279;50.010;8.260;2023-05-07T01:48:22;7.83;;;2.43;;
26656;SDS011;14279;50.010;8.260;2023-05-07T01:50:49;4.10;;;2.30;;
26656;SDS011;14279;50.010;8.260;2023-05-07T01:53:15;4.57;;;2.53;;
26656;SDS011;14279;50.010;8.260;2023-05-07T01:55:40;6.20;;;2.73;;
26656;SDS011;14279;50.010;8.260;2023-05-07T01:58:05;5.43;;;2.90;;
26656;SDS011;14279;50.010;8.260;2023-05-07T02:00:31;5.37;;;3.00;;
26656;SDS011;14279;50.010;8.260;2023-05-07T02:02:57;11.30;;;3.60;;
26656;SDS011;14279;50.010;8.260;2023-05-07T02:05:22;6.40;;;2.40;;
26656;SDS011;14279;50.010;8.260;2023-05-07T02:07:48;8.73;;;3.27;;
26656;SDS011;14279;50.010;8.260;2023-05-07T02:10:13;11.40;;;3.43;;
26656;SDS011;14279;50.010;8.260;2023-05-07T02:12:38;7.57;;;2.80;;
26656;SDS011;14279;50.010;8.260;2023-05-07T02:15:04;11.53;;;2.67;;
26656;SDS011;14279;50.010;8.260;2023-05-07T02:17:30;15.87;;;2.77;;
26656;SDS011;14279;50.010;8.260;2023-05-07T02:19:56;8.40;;;2.90;;
26656;SDS011;14279;50.010;8.260;2023-05-07T02:22:22;8.27;;;2.57;;
26656;SDS011;14279;50.010;8.260;2023-05-07T02:24:47;9.97;;;2.43;;
26656;SDS011;14279;50.010;8.260;2023-05-07T02:27:13;8.17;;;3.10;;
26656;SDS011;14279;50.010;8.260;2023-05-07T02:29:38;8.93;;;3.10;;
26656;SDS011;14279;50.010;8.260;2023-05-07T02:32:03;11.43;;;3.03;;
26656;SDS011;14279;50.010;8.260;2023-05-07T02:34:29;5.80;;;2.90;;
26656;SDS011;14279;50.010;8.260;2023-05-07T02:36:54;16.13;;;2.77;;
26656;SDS011;14279;50.010;8.260;2023-05-07T02:39:20;5.87;;;2.90;;
26656;SDS011;14279;50.010;8.260;2023-05-07T02:41:46;5.73;;;3.00;;
26656;SDS011;14279;50.010;8.260;2023-05-07T02:44:11;7.10;;;2.83;;
26656;SDS011;14279;50.010;8.260;2023-05-07T02:46:36;11.07;;;3.17;;
26656;SDS011;14279;50.010;8.260;2023-05-07T02:49:01;15.97;;;2.57;;
26656;SDS011;14279;50.010;8.260;2023-05-07T02:51:27;8.53;;;3.10;;
26656;SDS011;14279;50.010;8.260;2023-05-07T02:53:52;10.03;;;3.00;;
26656;SDS011;14279;50.010;8.260;2023-05-07T02:56:17;10.80;;;2.60;;
26656;SDS011;14279;50.010;8.260;2023-05-07T02:58:42;11.20;;;3.20;;
26656;SDS011;14279;50.010;8.260;2023-05-07T03:01:08;7.67;;;2.20;;
26656;SDS011;14279;50.010;8.260;2023-05-07T03:03:34;11.50;;;2.70;;
26656;SDS011;14279;50.010;8.260;2023-05-07T03:06:00;14.20;;;2.53;;
26656;SDS011;14279;50.010;8.260;2023-05-07T03:08:25;6.60;;;2.70;;
26656;SDS011;14279;50.010;8.260;2023-05-07T03:10:51;7.80;;;2.57;;
26656;SDS011;14279;50.010;8.260;2023-05-07T03:13:16;5.83;;;2.77;;
26656;SDS011;14279;50.010;8.260;2023-05-07T03:15:42;6.03;;;2.40;;
26656;SDS011;14279;50.010;8.260;2023-05-07T03:18:07;4.33;;;2.17;;
26656;SDS011;14279;50.010;8.260;2023-05-07T03:20:32;6.30;;;2.97;;
26656;SDS011;14279;50.010;8.260;2023-05-07T03:22:57;5.93;;;2.63;;
26656;SDS011;14279;50.010;8.260;2023-05-07T03:25:23;9.20;;;2.77;;
26656;SDS011;14279;50.010;8.260;2023-05-07T03:27:48;7.10;;;2.20;;
26656;SDS011;14279;50.010;8.260;2023-05-07T03:30:13;5.87;;;2.63;;
26656;SDS011;14279;50.010;8.260;2023-05-07T03:32:39;4.03;;;2.30;;
26656;SDS011;14279;50.010;8.260;2023-05-07T03:35:05;7.00;;;2.40;;
26656;SDS011;14279;50.010;8.260;2023-05-07T03:37:30;2.13;;;1.93;;
26656;SDS011;14279;50.010;8.260;2023-05-07T03:39:55;5.90;;;2.57;;
26656;SDS011;14279;50.010;8.260;2023-05-07T03:42:21;4.47;;;2.27;;
26656;SDS011;14279;50.010;8.260;2023-05-07T03:44:46;2.70;;;2.10;;
26656;SDS011;14279;50.010;8.260;2023-05-07T03:47:11;13.33;;;2.90;;
26656;SDS011;14279;50.010;8.260;2023-05-07T03:49:38;3.50;;;2.20;;
26656;SDS011;14279;50.010;8.260;2023-05-07T03:52:03;5.10;;;2.33;;
26656;SDS011;14279;50.010;8.260;2023-05-07T03:54:29;7.23;;;2.73;;
26656;SDS011;14279;50.010;8.260;2023-05-07T03:56:55;4.53;;;2.77;;
26656;SDS011;14279;50.010;8.260;2023-05-07T03:59:20;10.33;;;2.97;;
26656;SDS011;14279;50.010;8.260;2023-05-07T04:01:45;4.40;;;2.10;;
26656;SDS011;14279;50.010;8.260;2023-05-07T04:04:10;4.57;;;2.30;;
26656;SDS011;14279;50.010;8.260;2023-05-07T04:06:36;4.00;;;2.37;;
26656;SDS011;14279;50.010;8.260;2023-05-07T04:09:02;2.63;;;2.43;;
26656;SDS011;14279;50.010;8.260;2023-05-07T04:11:27;8.27;;;2.20;;
26656;SDS011;14279;50.010;8.260;2023-05-07T04:13:52;2.20;;;2.00;;
26656;SDS011;14279;50.010;8.260;2023-05-07T04:16:18;3.43;;;2.60;;
26656;SDS011;14279;50.010;8.260;2023-05-07T04:18:43;7.70;;;2.50;;
26656;SDS011;14279;50.010;8.260;2023-05-07T04:21:15;5.00;;;2.40;;
26656;SDS011;14279;50.010;8.260;2023-05-07T04:23:41;6.60;;;3.07;;
26656;SDS011;14279;50.010;8.260;2023-05-07T04:26:07;4.50;;;2.73;;
26656;SDS011;14279;50.010;8.260;2023-05-07T04:28:32;6.13;;;2.77;;
26656;SDS011;14279;50.010;8.260;2023-05-07T04:30:57;4.10;;;2.70;;
26656;SDS011;14279;50.010;8.260;2023-05-07T04:33:22;4.43;;;2.13;;
26656;SDS011;14279;50.010;8.260;2023-05-07T04:35:48;4.80;;;2.43;;
26656;SDS011;14279;50.010;8.260;2023-05-07T04:38:13;10.23;;;3.00;;
26656;SDS011;14279;50.010;8.260;2023-05-07T04:40:38;9.00;;;2.47;;
26656;SDS011;14279;50.010;8.260;2023-05-07T04:43:04;3.90;;;2.50;;
26656;SDS011;14279;50.010;8.260;2023-05-07T04:45:29;7.73;;;3.20;;
26656;SDS011;14279;50.010;8.260;2023-05-07T04:47:55;6.93;;;2.70;;
26656;SDS011;14279;50.010;8.260;2023-05-07T04:50:20;5.63;;;2.53;;
26656;SDS011;14279;50.010;8.260;2023-05-07T04:52:48;5.40;;;2.93;;
26656;SDS011;14279;50.010;8.260;2023-05-07T04:55:13;10.27;;;3.33;;
26656;SDS011;14279;50.010;8.260;2023-05-07T04:57:38;8.60;;;2.83;;
26656;SDS011;14279;50.010;8.260;2023-05-07T05:00:05;6.80;;;2.60;;
26656;SDS011;14279;50.010;8.260;2023-05-07T05:02:33;6.43;;;2.57;;
26656;SDS011;14279;50.010;8.260;2023-05-07T05:04:58;2.53;;;2.07;;
26656;SDS011;14279;50.010;8.260;2023-05-07T05:07:24;4.70;;;2.17;;
26656;SDS011;14279;50.010;8.260;2023-05-07T05:09:49;8.50;;;3.20;;
26656;SDS011;14279;50.010;8.260;2023-05-07T05:12:14;8.17;;;2.50;;
26656;SDS011;14279;50.010;8.260;2023-05-07T05:14:40;13.93;;;2.83;;
26656;SDS011;14279;50.010;8.260;2023-05-07T05:17:05;5.10;;;2.23;;
26656;SDS011;14279;50.010;8.260;2023-05-07T05:19:30;5.80;;;2.30;;
26656;SDS011;14279;50.010;8.260;2023-05-07T05:21:56;2.50;;;2.00;;
26656;SDS011;14279;50.010;8.260;2023-05-07T05:24:21;5.23;;;2.20;;
26656;SDS011;14279;50.010;8.260;2023-05-07T05:26:46;4.57;;;2.00;;
26656;SDS011;14279;50.010;8.260;2023-05-07T05:29:11;2.47;;;2.27;;
26656;SDS011;14279;50.010;8.260;2023-05-07T05:31:37;2.60;;;2.23;;
26656;SDS011;14279;50.010;8.260;2023-05-07T05:34:02;2.07;;;1.90;;
26656;SDS011;14279;50.010;8.260;2023-05-07T05:36:28;1.93;;;1.73;;
26656;SDS011;14279;50.010;8.260;2023-05-07T05:38:53;4.47;;;1.77;;
26656;SDS011;14279;50.010;8.260;2023-05-07T05:41:18;5.00;;;2.23;;
26656;SDS011;14279;50.010;8.260;2023-05-07T05:43:44;3.87;;;1.60;;
26656;SDS011;14279;50.010;8.260;2023-05-07T05:46:09;4.10;;;1.93;;
26656;SDS011;14279;50.010;8.260;2023-05-07T05:48:36;2.03;;;1.83;;
26656;SDS011;14279;50.010;8.260;2023-05-07T05:51:01;4.50;;;2.27;;
26656;SDS011;14279;50.010;8.260;2023-05-07T05:53:27;3.03;;;1.93;;
26656;SDS011;14279;50.010;8.260;2023-05-07T05:55:52;1.73;;;1.60;;
26656;SDS011;14279;50.010;8.260;2023-05-07T05:58:17;4.37;;;1.80;;
26656;SDS011;14279;50.010;8.260;2023-05-07T06:00:44;3.57;;;1.90;;
26656;SDS011;14279;50.010;8.260;2023-05-07T06:03:09;4.37;;;2.20;;
26656;SDS011;14279;50.010;8.260;2023-05-07T06:05:35;2.67;;;2.03;;
26656;SDS011;14279;50.010;8.260;2023-05-07T06:08:00;3.87;;;2.00;;
26656;SDS011;14279;50.010;8.260;2023-05-07T06:10:25;1.67;;;1.57;;
26656;SDS011;14279;50.010;8.260;2023-05-07T06:12:52;2.90;;;1.80;;
26656;SDS011;14279;50.010;8.260;2023-05-07T06:15:17;2.20;;;1.60;;
26656;SDS011;14279;50.010;8.260;2023-05-07T06:17:42;2.10;;;1.67;;
26656;SDS011;14279;50.010;8.260;2023-05-07T06:20:07;3.33;;;1.80;;
26656;SDS011;14279;50.010;8.260;2023-05-07T06:22:33;3.27;;;2.20;;
26656;SDS011;14279;50.010;8.260;2023-05-07T06:24:58;4.67;;;1.77;;
26656;SDS011;14279;50.010;8.260;2023-05-07T06:27:23;1.87;;;1.70;;
26656;SDS011;14279;50.010;8.260;2023-05-07T06:29:49;3.33;;;2.13;;
26656;SDS011;14279;50.010;8.260;2023-05-07T06:32:14;8.97;;;2.13;;
26656;SDS011;14279;50.010;8.260;2023-05-07T06:34:40;2.77;;;1.97;;
26656;SDS011;14279;50.010;8.260;2023-05-07T06:37:06;4.23;;;2.20;;
26656;SDS011;14279;50.010;8.260;2023-05-07T06:39:31;3.63;;;2.17;;
26656;SDS011;14279;50.010;8.260;2023-05-07T06:41:57;3.40;;;1.77;;
26656;SDS011;14279;50.010;8.260;2023-05-07T06:44:23;2.50;;;1.90;;
26656;SDS011;14279;50.010;8.260;2023-05-07T06:46:48;2.10;;;1.90;;
26656;SDS011;14279;50.010;8.260;2023-05-07T06:49:13;2.30;;;2.10;;
26656;SDS011;14279;50.010;8.260;2023-05-07T06:51:39;5.40;;;2.30;;
26656;SDS011;14279;50.010;8.260;2023-05-07T06:54:04;3.17;;;2.03;;
26656;SDS011;14279;50.010;8.260;2023-05-07T06:56:33;3.20;;;2.30;;
26656;SDS011;14279;50.010;8.260;2023-05-07T06:59:02;2.40;;;2.20;;
26656;SDS011;14279;50.010;8.260;2023-05-07T07:01:27;2.13;;;1.87;;
26656;SDS011;14279;50.010;8.260;2023-05-07T07:03:53;2.07;;;1.97;;
26656;SDS011;14279;50.010;8.260;2023-05-07T07:06:18;5.20;;;2.50;;
26656;SDS011;14279;50.010;8.260;2023-05-07T07:08:43;5.63;;;2.30;;
26656;SDS011;14279;50.010;8.260;2023-05-07T07:11:09;4.03;;;2.20;;
26656;SDS011;14279;50.010;8.260;2023-05-07T07:13:35;4.30;;;1.97;;
26656;SDS011;14279;50.010;8.260;2023-05-07T07:16:00;5.93;;;2.20;;
26656;SDS011;14279;50.010;8.260;2023-05-07T07:18:26;4.83;;;2.43;;
26656;SDS011;14279;50.010;8.260;2023-05-07T07:20:51;3.77;;;2.27;;
26656;SDS011;14279;50.010;8.260;2023-05-07T07:23:16;3.27;;;2.10;;
26656;SDS011;14279;50.010;8.260;2023-05-07T07:25:41;4.50;;;2.30;;
26656;SDS011;14279;50.010;8.260;2023-05-07T07:28:07;3.53;;;2.60;;
26656;SDS011;14279;50.010;8.260;2023-05-07T07:30:32;4.13;;;2.20;;
26656;SDS011;14279;50.010;8.260;2023-05-07T07:32:57;2.33;;;2.13;;
26656;SDS011;14279;50.010;8.260;2023-05-07T07:35:27;9.30;;;2.57;;
26656;SDS011;14279;50.010;8.260;2023-05-07T07:37:53;4.60;;;2.40;;
26656;SDS011;14279;50.010;8.260;2023-05-07T07:40:18;5.70;;;2.50;;
26656;SDS011;14279;50.010;8.260;2023-05-07T07:42:44;6.53;;;2.70;;
26656;SDS011;14279;50.010;8.260;2023-05-07T07:45:09;3.53;;;2.30;;
26656;SDS011;14279;50.010;8.260;2023-05-07T07:47:35;3.33;;;2.20;;
26656;SDS011;14279;50.010;8.260;2023-05-07T07:50:00;3.33;;;2.63;;
26656;SDS011;14279;50.010;8.260;2023-05-07T07:52:25;2.70;;;2.37;;
26656;SDS011;14279;50.010;8.260;2023-05-07T07:54:51;3.30;;;2.33;;
26656;SDS011;14279;50.010;8.260;2023-05-07T07:57:16;3.27;;;2.10;;
26656;SDS011;14279;50.010;8.260;2023-05-07T07:59:41;5.30;;;2.20;;
26656;SDS011;14279;50.010;8.260;2023-05-07T08:02:08;3.50;;;2.60;;
26656;SDS011;14279;50.010;8.260;2023-05-07T08:04:33;3.40;;;2.57;;
26656;SDS011;14279;50.010;8.260;2023-05-07T08:06:59;15.93;;;3.07;;
26656;SDS011;14279;50.010;8.260;2023-05-07T08:09:24;3.63;;;2.93;;
26656;SDS011;14279;50.010;8.260;2023-05-07T08:11:51;3.83;;;2.70;;
26656;SDS011;14279;50.010;8.260;2023-05-07T08:14:17;3.73;;;2.87;;
26656;SDS011;14279;50.010;8.260;2023-05-07T08:16:43;4.77;;;3.40;;
26656;SDS011;14279;50.010;8.260;2023-05-07T08:19:08;5.23;;;3.20;;
26656;SDS011;14279;50.010;8.260;2023-05-07T08:21:33;4.10;;;3.20;;
26656;SDS011;14279;50.010;8.260;2023-05-07T08:23:59;5.40;;;2.80;;
26656;SDS011;14279;50.010;8.260;2023-05-07T08:26:24;3.27;;;3.00;;
26656;SDS011;14279;50.010;8.260;2023-05-07T08:28:50;3.17;;;2.70;;
26656;SDS011;14279;50.010;8.260;2023-05-07T08:31:15;4.43;;;2.80;;
26656;SDS011;14279;50.010;8.260;2023-05-07T08:33:41;3.63;;;2.80;;
26656;SDS011;14279;50.010;8.260;2023-05-07T08:36:06;5.20;;;2.70;;
26656;SDS011;14279;50.010;8.260;2023-05-07T08:38:31;6.37;;;2.97;;
26656;SDS011;14279;50.010;8.260;2023-05-07T08:40:56;6.83;;;3.03;;
26656;SDS011;14279;50.010;8.260;2023-05-07T08:43:22;4.33;;;2.90;;
26656;SDS011;14279;50.010;8.260;2023-05-07T08:45:52;2.77;;;2.57;;
26656;SDS011;14279;50.010;8.260;2023-05-07T08:48:20;5.00;;;2.90;;
26656;SDS011;14279;50.010;8.260;2023-05-07T08:50:47;4.00;;;2.77;;
26656;SDS011;14279;50.010;8.260;2023-05-07T08:53:12;3.90;;;3.30;;
26656;SDS011;14279;50.010;8.260;2023-05-07T08:55:39;4.20;;;2.80;;
26656;SDS011;14279;50.010;8.260;2023-05-07T08:58:04;6.30;;;3.03;;
26656;SDS011;14279;50.010;8.260;2023-05-07T09:00:29;3.77;;;3.37;;
26656;SDS011;14279;50.010;8.260;2023-05-07T09:02:55;4.40;;;2.70;;
26656;SDS011;14279;50.010;8.260;2023-05-07T09:05:21;4.03;;;2.97;;
26656;SDS011;14279;50.010;8.260;2023-05-07T09:07:46;3.53;;;2.90;;
26656;SDS011;14279;50.010;8.260;2023-05-07T09:10:11;4.63;;;3.23;;
26656;SDS011;14279;50.010;8.260;2023-05-07T09:12:37;4.60;;;3.33;;
26656;SDS011;14279;50.010;8.260;2023-05-07T09:15:04;5.50;;;3.13;;
26656;SDS011;14279;50.010;8.260;2023-05-07T09:17:30;3.30;;;3.00;;
26656;SDS011;14279;50.010;8.260;2023-05-07T09:19:55;3.50;;;3.20;;
26656;SDS011;14279;50.010;8.260;2023-05-07T09:22:21;8.90;;;3.30;;
26656;SDS011;14279;50.010;8.260;2023-05-07T09:24:50;4.37;;;3.10;;
26656;SDS011;14279;50.010;8.260;2023-05-07T09:27:15;4.83;;;3.00;;
26656;SDS011;14279;50.010;8.260;2023-05-07T09:29:43;3.97;;;3.57;;
26656;SDS011;14279;50.010;8.260;2023-05-07T09:32:08;3.43;;;3.13;;
26656;SDS011;14279;50.010;8.260;2023-05-07T09:34:34;5.63;;;3.13;;
26656;SDS011;14279;50.010;8.260;2023-05-07T09:37:01;5.77;;;3.53;;
26656;SDS011;14279;50.010;8.260;2023-05-07T09:39:44;4.93;;;3.40;;
26656;SDS011;14279;50.010;8.260;2023-05-07T09:42:11;3.50;;;3.17;;
26656;SDS011;14279;50.010;8.260;2023-05-07T09:44:38;5.27;;;3.30;;
26656;SDS011;14279;50.010;8.260;2023-05-07T09:47:07;5.67;;;3.80;;
26656;SDS011;14279;50.010;8.260;2023-05-07T09:49:36;6.63;;;3.60;;
26656;SDS011;14279;50.010;8.260;2023-05-07T09:52:05;3.57;;;3.27;;
26656;SDS011;14279;50.010;8.260;2023-05-07T09:54:33;4.03;;;3.47;;
26656;SDS011;14279;50.010;8.260;2023-05-07T09:57:00;4.00;;;2.93;;
26656;SDS011;14279;50.010;8.260;2023-05-07T09:59:31;2.87;;;2.67;;
26656;SDS011;14279;50.010;8.260;2023-05-07T10:01:57;3.20;;;2.90;;
26656;SDS011;14279;50.010;8.260;2023-05-07T10:04:25;3.20;;;2.90;;
26656;SDS011;14279;50.010;8.260;2023-05-07T10:06:51;4.70;;;3.17;;
26656;SDS011;14279;50.010;8.260;2023-05-07T10:09:16;4.13;;;3.07;;
26656;SDS011;14279;50.010;8.260;2023-05-07T10:11:42;4.13;;;2.80;;
26656;SDS011;14279;50.010;8.260;2023-05-07T10:14:08;5.20;;;2.90;;
26656;SDS011;14279;50.010;8.260;2023-05-07T10:16:35;5.33;;;3.47;;
26656;SDS011;14279;50.010;8.260;2023-05-07T10:19:04;3.27;;;2.93;;
26656;SDS011;14279;50.010;8.260;2023-05-07T10:21:33;5.83;;;3.37;;
26656;SDS011;14279;50.010;8.260;2023-05-07T10:24:05;3.90;;;2.80;;
26656;SDS011;14279;50.010;8.260;2023-05-07T10:26:42;5.20;;;3.10;;
26656;SDS011;14279;50.010;8.260;2023-05-07T10:35:03;3.63;;;3.33;;
26656;SDS011;14279;50.010;8.260;2023-05-07T10:37:31;6.00;;;3.50;;
26656;SDS011;14279;50.010;8.260;2023-05-07T10:39:57;3.77;;;3.20;;
26656;SDS011;14279;50.010;8.260;2023-05-07T10:42:23;4.40;;;3.43;;
26656;SDS011;14279;50.010;8.260;2023-05-07T10:44:48;4.03;;;2.97;;
26656;SDS011;14279;50.010;8.260;2023-05-07T10:47:14;3.83;;;2.97;;
26656;SDS011;14279;50.010;8.260;2023-05-07T10:52:17;3.20;;;2.90;;
26656;SDS011;14279;50.010;8.260;2023-05-07T10:54:44;8.43;;;3.00;;
26656;SDS011;14279;50.010;8.260;2023-05-07T11:05:24;4.60;;;3.30;;
26656;SDS011;14279;50.010;8.260;2023-05-07T11:07:56;3.53;;;2.90;;
26656;SDS011;14279;50.010;8.260;2023-05-07T11:10:22;3.77;;;3.40;;
26656;SDS011;14279;50.010;8.260;2023-05-07T11:12:48;4.17;;;3.13;;
26656;SDS011;14279;50.010;8.260;2023-05-07T11:15:15;3.40;;;2.97;;
26656;SDS011;14279;50.010;8.260;2023-05-07T11:17:59;8.20;;;3.33;;
26656;SDS011;14279;50.010;8.260;2023-05-07T11:23:58;9.83;;;3.43;;
26656;SDS011;14279;50.010;8.260;2023-05-07T11:26:08;4.00;;;3.20;;
26656;SDS011;14279;50.010;8.260;2023-05-07T11:28:38;6.30;;;3.50;;
26656;SDS011;14279;50.010;8.260;2023-05-07T11:31:04;5.80;;;3.10;;
26656;SDS011;14279;50.010;8.260;2023-05-07T11:33:30;4.00;;;2.67;;
26656;SDS011;14279;50.010;8.260;2023-05-07T11:35:56;3.23;;;2.90;;
26656;SDS011;14279;50.010;8.260;2023-05-07T11:38:22;11.83;;;3.33;;
26656;SDS011;14279;50.010;8.260;2023-05-07T11:40:51;3.83;;;3.33;;
26656;SDS011;14279;50.010;8.260;2023-05-07T11:43:17;5.50;;;3.10;;
26656;SDS011;14279;50.010;8.260;2023-05-07T11:45:42;5.97;;;3.27;;
26656;SDS011;14279;50.010;8.260;2023-05-07T11:48:08;2.60;;;2.40;;
26656;SDS011;14279;50.010;8.260;2023-05-07T11:50:33;6.80;;;3.30;;
26656;SDS011;14279;50.010;8.260;2023-05-07T11:52:58;3.37;;;2.90;;
26656;SDS011;14279;50.010;8.260;2023-05-07T11:55:24;4.93;;;3.00;;
26656;SDS011;14279;50.010;8.260;2023-05-07T11:57:50;3.73;;;3.17;;
26656;SDS011;14279;50.010;8.260;2023-05-07T12:00:16;5.60;;;2.70;;
26656;SDS011;14279;50.010;8.260;2023-05-07T12:02:42;3.47;;;2.40;;
26656;SDS011;14279;50.010;8.260;2023-05-07T12:05:07;3.93;;;2.80;;
26656;SDS011;14279;50.010;8.260;2023-05-07T12:07:33;3.63;;;2.80;;
26656;SDS011;14279;50.010;8.260;2023-05-07T12:09:59;2.97;;;2.67;;
26656;SDS011;14279;50.010;8.260;2023-05-07T12:12:24;3.27;;;2.67;;
26656;SDS011;14279;50.010;8.260;2023-05-07T12:14:51;4.20;;;3.20;;
26656;SDS011;14279;50.010;8.260;2023-05-07T12:17:17;4.40;;;2.50;;
26656;SDS011;14279;50.010;8.260;2023-05-07T12:19:42;3.37;;;3.07;;
26656;SDS011;14279;50.010;8.260;2023-05-07T12:22:10;4.73;;;3.30;;
26656;SDS011;14279;50.010;8.260;2023-05-07T12:24:48;2.90;;;2.60;;
26656;SDS011;14279;50.010;8.260;2023-05-07T12:27:15;3.57;;;3.23;;
26656;SDS011;14279;50.010;8.260;2023-05-07T12:29:47;2.83;;;2.63;;
26656;SDS011;14279;50.010;8.260;2023-05-07T12:32:15;3.00;;;2.60;;
26656;SDS011;14279;50.010;8.260;2023-05-07T12:34:42;3.03;;;2.27;;
26656;SDS011;14279;50.010;8.260;2023-05-07T12:37:07;2.40;;;2.20;;
26656;SDS011;14279;50.010;8.260;2023-05-07T12:39:33;11.90;;;2.60;;
26656;SDS011;14279;50.010;8.260;2023-05-07T12:41:58;3.17;;;2.40;;
26656;SDS011;14279;50.010;8.260;2023-05-07T12:44:25;4.30;;;2.40;;
26656;SDS011;14279;50.010;8.260;2023-05-07T12:46:53;2.70;;;2.30;;
26656;SDS011;14279;50.010;8.260;2023-05-07T12:49:19;4.73;;;2.40;;
26656;SDS011;14279;50.010;8.260;2023-05-07T12:51:46;3.47;;;2.40;;
26656;SDS011;14279;50.010;8.260;2023-05-07T12:54:12;2.23;;;2.03;;
26656;SDS011;14279;50.010;8.260;2023-05-07T12:56:38;2.10;;;1.53;;
26656;SDS011;14279;50.010;8.260;2023-05-07T12:59:03;2.40;;;1.40;;
26656;SDS011;14279;50.010;8.260;2023-05-07T13:01:29;5.80;;;1.20;;
26656;SDS011;14279;50.010;8.260;2023-05-07T13:03:55;5.23;;;1.67;;
26656;SDS011;14279;50.010;8.260;2023-05-07T13:06:21;2.00;;;1.60;;
26656;SDS011;14279;50.010;8.260;2023-05-07T13:08:46;7.87;;;1.33;;
26656;SDS011;14279;50.010;8.260;2023-05-07T13:11:12;2.93;;;1.50;;
26656;SDS011;14279;50.010;8.260;2023-05-07T13:13:38;1.67;;;1.30;;
26656;SDS011;14279;50.010;8.260;2023-05-07T13:16:05;6.20;;;1.73;;
26656;SDS011;14279;50.010;8.260;2023-05-07T13:18:32;2.90;;;1.43;;
26656;SDS011;14279;50.010;8.260;2023-05-07T13:20:58;1.40;;;1.30;;
26656;SDS011;14279;50.010;8.260;2023-05-07T13:23:25;4.07;;;1.63;;
26656;SDS011;14279;50.010;8.260;2023-05-07T13:25:50;1.20;;;1.00;;
26656;SDS011;14279;50.010;8.260;2023-05-07T13:28:17;6.47;;;1.10;;
26656;SDS011;14279;50.010;8.260;2023-05-07T13:30:42;1.80;;;1.40;;
26656;SDS011;14279;50.010;8.260;2023-05-07T13:33:08;5.20;;;1.60;;
26656;SDS011;14279;50.010;8.260;2023-05-07T13:35:33;2.00;;;1.40;;
26656;SDS011;14279;50.010;8.260;2023-05-07T13:37:59;3.17;;;1.70;;
26656;SDS011;14279;50.010;8.260;2023-05-07T13:40:24;3.20;;;1.60;;
26656;SDS011;14279;50.010;8.260;2023-05-07T13:42:50;2.20;;;1.20;;
26656;SDS011;14279;50.010;8.260;2023-05-07T13:45:16;2.90;;;1.83;;
26656;SDS011;14279;50.010;8.260;2023-05-07T13:47:42;1.50;;;1.40;;
26656;SDS011;14279;50.010;8.260;2023-05-07T13:50:09;1.80;;;1.70;;
26656;SDS011;14279;50.010;8.260;2023-05-07T13:52:36;4.27;;;1.40;;
26656;SDS011;14279;50.010;8.260;2023-05-07T13:55:02;2.00;;;1.67;;
26656;SDS011;14279;50.010;8.260;2023-05-07T13:57:27;4.33;;;1.47;;
26656;SDS011;14279;50.010;8.260;2023-05-07T13:59:53;3.53;;;1.57;;
26656;SDS011;14279;50.010;8.260;2023-05-07T14:02:19;4.73;;;1.43;;
26656;SDS011;14279;50.010;8.260;2023-05-07T14:04:44;4.97;;;1.30;;
26656;SDS011;14279;50.010;8.260;2023-05-07T14:07:10;3.23;;;1.33;;
26656;SDS011;14279;50.010;8.260;2023-05-07T14:09:35;3.00;;;1.03;;
26656;SDS011;14279;50.010;8.260;2023-05-07T14:12:00;4.73;;;1.10;;
26656;SDS011;14279;50.010;8.260;2023-05-07T14:14:26;1.40;;;1.30;;
26656;SDS011;14279;50.010;8.260;2023-05-07T14:16:51;2.13;;;1.40;;
26656;SDS011;14279;50.010;8.260;2023-05-07T14:19:17;1.50;;;1.40;;
26656;SDS011;14279;50.010;8.260;2023-05-07T14:21:42;3.00;;;2.10;;
26656;SDS011;14279;50.010;8.260;2023-05-07T14:24:07;1.50;;;1.40;;
26656;SDS011;14279;50.010;8.260;2023-05-07T14:26:33;1.83;;;1.23;;
26656;SDS011;14279;50.010;8.260;2023-05-07T14:28:59;3.43;;;1.20;;
26656;SDS011;14279;50.010;8.260;2023-05-07T14:31:24;2.60;;;1.40;;
26656;SDS011;14279;50.010;8.260;2023-05-07T14:33:49;3.30;;;1.70;;
26656;SDS011;14279;50.010;8.260;2023-05-07T14:36:15;2.07;;;1.83;;
26656;SDS011;14279;50.010;8.260;2023-05-07T14:38:42;1.80;;;1.70;;
26656;SDS011;14279;50.010;8.260;2023-05-07T14:41:07;4.00;;;1.53;;
26656;SDS011;14279;50.010;8.260;2023-05-07T14:43:32;4.13;;;1.60;;
26656;SDS011;14279;50.010;8.260;2023-05-07T14:45:58;1.60;;;1.50;;
26656;SDS011;14279;50.010;8.260;2023-05-07T14:48:23;2.70;;;1.73;;
26656;SDS011;14279;50.010;8.260;2023-05-07T14:50:48;2.13;;;1.93;;
26656;SDS011;14279;50.010;8.260;2023-05-07T14:53:14;14.03;;;2.37;;
26656;SDS011;14279;50.010;8.260;2023-05-07T14:55:39;4.00;;;2.27;;
26656;SDS011;14279;50.010;8.260;2023-05-07T14:58:04;6.60;;;2.50;;